createdAt,value
2019-01-02T00:01:50.431Z,102361.30
2019-01-02T00:12:48.553Z,102358.66
2019-01-02T00:17:54.390Z,102355.97
2019-01-02T00:23:00.016Z,102366.22
2019-01-02T00:28:05.636Z,102368.01
2019-01-02T00:33:11.036Z,102375.14
2019-01-02T00:38:17.011Z,102387.61
2019-01-02T00:43:22.594Z,102386.67
2019-01-02T00:48:28.670Z,102386.23
2019-01-02T00:59:06.132Z,102400.92
2019-01-02T01:09:35.616Z,102405.80
2019-01-02T01:14:41.095Z,102415.63
2019-01-02T01:19:46.618Z,102404.95
2019-01-02T01:24:52.474Z,102410.70
2019-01-02T01:29:57.918Z,102414.73
2019-01-02T01:35:03.302Z,102412.52
2019-01-02T01:40:11.036Z,102414.30
2019-01-02T01:50:54.386Z,102410.28
2019-01-02T01:56:00.218Z,102413.31
2019-01-02T02:06:18.665Z,102406.84
2019-01-02T02:11:24.020Z,102409.40
2019-01-02T02:16:29.481Z,102425.23
2019-01-02T02:21:34.831Z,102430.52
2019-01-02T02:26:40.726Z,102430.27
2019-01-02T02:31:46.287Z,102428.93
2019-01-02T02:36:51.681Z,102432.17
2019-01-02T02:41:57.507Z,102438.91
2019-01-02T02:47:03.171Z,102441.06
2019-01-02T02:52:08.543Z,102443.52
2019-01-02T02:57:13.921Z,102447.53
2019-01-02T03:07:56.974Z,102459.55
2019-01-02T03:13:02.656Z,102455.84
2019-01-02T03:18:08.619Z,102454.88
2019-01-02T03:23:14.077Z,102454.03
2019-01-02T03:28:19.979Z,102448.88
2019-01-02T03:33:25.580Z,102450.17
2019-01-02T03:38:31.264Z,102460.41
2019-01-02T03:43:36.626Z,102451.77
2019-01-02T03:48:42.275Z,102451.38
2019-01-02T03:53:47.652Z,102451.48
2019-01-02T03:58:53.061Z,102444.52
2019-01-02T04:03:58.518Z,102438.98
2019-01-02T04:09:04.956Z,102437.52
2019-01-02T04:14:10.421Z,102432.64
2019-01-02T04:19:15.776Z,102434.45
2019-01-02T04:24:21.242Z,102431.14
2019-01-02T04:29:26.657Z,102428.64
2019-01-02T04:34:31.997Z,102412.45
2019-01-02T04:39:37.420Z,102419.75
2019-01-02T04:44:42.747Z,102416.56
2019-01-02T04:49:48.109Z,102412.89
2019-01-02T04:54:53.538Z,102409.30
2019-01-02T04:59:58.977Z,102411.33
2019-01-02T05:05:04.628Z,102402.84
2019-01-02T05:10:11.749Z,102404.03
2019-01-02T05:15:17.227Z,102406.54
2019-01-02T05:20:22.551Z,102406.11
2019-01-02T05:25:28.066Z,102406.11
2019-01-02T05:30:33.419Z,102409.18
2019-01-02T05:35:38.978Z,102410.89
2019-01-02T05:40:44.206Z,102409.27
2019-01-02T05:45:49.635Z,102419.45
2019-01-02T05:50:55.024Z,102414.02
2019-01-02T05:56:00.561Z,102410.76
2019-01-02T06:01:05.941Z,102416.02
2019-01-02T06:06:11.397Z,102417.81
2019-01-02T06:11:17.002Z,102421.25
2019-01-02T06:16:22.403Z,102433.03
2019-01-02T06:21:27.868Z,102430.31
2019-01-02T06:26:33.237Z,102440.48
2019-01-02T06:31:38.637Z,102438.27
2019-01-02T06:36:44.007Z,102438.27
2019-01-02T06:41:49.358Z,102438.55
2019-01-02T06:46:54.893Z,102450.79
2019-01-02T06:52:00.255Z,102456.73
2019-01-02T06:57:05.542Z,102461.61
2019-01-02T07:02:10.852Z,102461.08
2019-01-02T07:07:16.252Z,102465.15
2019-01-02T07:12:21.783Z,102475.00
2019-01-02T07:17:27.198Z,102473.30
2019-01-02T07:22:32.772Z,102480.84
2019-01-02T07:27:38.263Z,102482.11
2019-01-02T07:32:43.757Z,102489.92
2019-01-02T07:38:01.883Z,102492.97
2019-01-02T07:43:20.188Z,102502.70
2019-01-02T07:48:51.698Z,102506.38
2019-01-02T07:54:14.348Z,102511.37
2019-01-02T07:59:40.492Z,102517.57
2019-01-02T08:05:01.373Z,102517.64
2019-01-02T08:10:24.177Z,102526.23
2019-01-02T08:15:47.017Z,102525.78
2019-01-02T08:21:09.348Z,102537.47
2019-01-02T08:26:28.933Z,102539.20
2019-01-02T08:31:59.359Z,102544.41
2019-01-02T08:37:29.149Z,102552.32
2019-01-02T08:42:58.978Z,102551.13
2019-01-02T08:48:15.855Z,102548.63
2019-01-02T08:53:47.486Z,102560.56
2019-01-02T08:59:15.713Z,102560.97
2019-01-02T09:04:33.661Z,102561.78
2019-01-02T09:09:56.362Z,102550.95
2019-01-02T09:15:30.658Z,102562.36
2019-01-02T09:20:52.572Z,102560.02
2019-01-02T09:26:09.119Z,102570.05
2019-01-02T09:37:27.246Z,102567.77
2019-01-02T09:42:46.803Z,102570.72
2019-01-02T09:48:01.732Z,102564.57
2019-01-02T09:53:16.192Z,102565.45
2019-01-02T09:58:59.557Z,102578.14
2019-01-02T10:04:33.577Z,102577.82
2019-01-02T10:10:13.623Z,102579.75
2019-01-02T10:15:36.276Z,102580.48
2019-01-02T10:20:55.217Z,102582.31
2019-01-02T10:26:18.394Z,102591.17
2019-01-02T10:31:50.800Z,102596.33
2019-01-02T10:37:07.960Z,102596.63
2019-01-02T10:42:29.990Z,102589.17
2019-01-02T10:47:45.285Z,102587.14
2019-01-02T10:53:02.574Z,102589.80
2019-01-02T10:58:36.536Z,102587.56
2019-01-02T11:03:59.305Z,102592.48
2019-01-02T11:09:23.860Z,102589.67
2019-01-02T11:14:56.313Z,102593.66
2019-01-02T11:20:19.209Z,102588.69
2019-01-02T11:25:49.175Z,102590.93
2019-01-02T11:31:19.407Z,102581.05
2019-01-02T11:36:38.457Z,102581.61
2019-01-02T11:42:02.345Z,102583.83
2019-01-02T11:47:07.796Z,102581.61
2019-01-02T11:52:13.362Z,102584.70
2019-01-02T11:57:19.000Z,102588.14
2019-01-02T12:07:36.679Z,102574.63
2019-01-02T12:12:42.519Z,102564.89
2019-01-02T12:17:48.085Z,102564.77
2019-01-02T12:22:53.455Z,102563.77
2019-01-02T12:27:59.044Z,102560.73
2019-01-02T12:33:04.601Z,102563.11
2019-01-02T12:38:10.204Z,102564.39
2019-01-02T12:43:15.609Z,102552.33
2019-01-02T12:48:20.960Z,102562.55
2019-01-02T12:53:26.487Z,102558.08
2019-01-02T12:58:31.831Z,102541.72
2019-01-02T13:04:03.825Z,102545.70
2019-01-02T13:09:20.990Z,102531.19
2019-01-02T13:14:43.271Z,102529.02
2019-01-02T13:20:03.231Z,102526.50
2019-01-02T13:25:18.725Z,102524.98
2019-01-02T13:30:56.357Z,102521.95
2019-01-02T13:36:17.515Z,102523.73
2019-01-02T13:41:42.430Z,102521.25
2019-01-02T13:46:57.522Z,102510.54
2019-01-02T13:52:03.033Z,102517.22
2019-01-02T13:57:08.876Z,102511.98
2019-01-02T14:02:14.296Z,102512.38
2019-01-02T14:07:19.778Z,102503.91
2019-01-02T14:12:25.235Z,102505.61
2019-01-02T14:17:30.716Z,102505.05
2019-01-02T14:22:36.096Z,102506.50
2019-01-02T14:32:59.107Z,102505.66
2019-01-02T14:38:05.133Z,102511.19
2019-01-02T14:43:12.193Z,102508.45
2019-01-02T14:48:18.241Z,102508.80
2019-01-02T14:53:23.878Z,102500.92
2019-01-02T14:58:29.577Z,102506.59
2019-01-02T15:03:35.105Z,102507.90
2019-01-02T15:08:40.594Z,102513.71
2019-01-02T15:13:46.173Z,102516.67
2019-01-02T15:18:51.694Z,102511.25
2019-01-02T15:23:57.135Z,102506.11
2019-01-02T15:29:02.613Z,102507.02
2019-01-02T15:34:08.233Z,102500.17
2019-01-02T15:39:13.707Z,102513.83
2019-01-02T15:44:19.321Z,102503.62
2019-01-02T15:54:36.221Z,102511.05
2019-01-02T16:05:07.057Z,102511.84
2019-01-02T16:10:12.818Z,102520.14
2019-01-02T16:15:18.341Z,102509.36
2019-01-02T16:20:23.897Z,102511.53
2019-01-02T16:30:42.701Z,102521.64
2019-01-02T16:35:48.341Z,102521.61
2019-01-02T16:40:53.720Z,102525.06
2019-01-02T16:45:59.240Z,102530.67
2019-01-02T16:51:04.800Z,102531.93
2019-01-02T16:56:10.181Z,102527.46
2019-01-02T17:01:15.761Z,102528.82
2019-01-02T17:11:32.501Z,102527.42
2019-01-02T17:16:37.961Z,102529.53
2019-01-02T17:21:43.621Z,102524.56
2019-01-02T17:26:49.060Z,102528.03
2019-01-02T17:31:54.698Z,102525.90
2019-01-02T17:37:00.121Z,102526.35
2019-01-02T17:42:05.823Z,102532.88
2019-01-02T17:47:12.320Z,102529.35
2019-01-02T17:52:17.920Z,102533.38
2019-01-02T17:57:23.480Z,102536.30
2019-01-02T18:02:29.061Z,102532.64
2019-01-02T18:07:34.640Z,102525.09
2019-01-02T18:12:40.123Z,102537.48
2019-01-02T18:17:45.598Z,102547.95
2019-01-02T18:22:51.089Z,102547.95
2019-01-02T18:27:56.549Z,102545.37
2019-01-02T18:33:02.137Z,102540.11
2019-01-02T18:38:07.740Z,102538.39
2019-01-02T18:43:13.302Z,102536.65
2019-01-02T18:48:18.817Z,102531.23
2019-01-02T18:53:25.281Z,102539.27
2019-01-02T18:58:30.884Z,102537.91
2019-01-02T19:03:36.498Z,102527.19
2019-01-02T19:08:42.201Z,102529.88
2019-01-02T19:13:47.742Z,102525.52
2019-01-02T19:18:53.421Z,102522.33
2019-01-02T19:23:58.964Z,102527.56
2019-01-02T19:29:04.362Z,102528.52
2019-01-02T19:34:09.862Z,102519.26
2019-01-02T19:39:15.381Z,102531.23
2019-01-02T19:44:21.141Z,102521.04
2019-01-02T19:49:27.001Z,102518.39
2019-01-02T19:54:32.530Z,102513.53
2019-01-02T19:59:39.297Z,102516.98
2019-01-02T20:04:44.902Z,102518.66
2019-01-02T20:09:50.461Z,102515.66
2019-01-02T20:14:56.104Z,102508.54
2019-01-02T20:20:01.531Z,102515.66
2019-01-02T20:25:07.222Z,102524.87
2019-01-02T20:30:12.385Z,102520.17
2019-01-02T20:35:18.018Z,102529.98
2019-01-02T20:40:23.361Z,102532.22
2019-01-02T20:45:28.941Z,102532.29
2019-01-02T20:50:37.561Z,102529.81
2019-01-02T20:55:42.962Z,102544.86
2019-01-02T21:00:48.361Z,102540.84
2019-01-02T21:05:53.961Z,102547.03
2019-01-02T21:10:59.482Z,102541.34
2019-01-02T21:16:04.952Z,102542.84
2019-01-02T21:21:10.401Z,102541.51
2019-01-02T21:26:15.821Z,102531.77
2019-01-02T21:31:21.502Z,102534.84
2019-01-02T21:36:26.941Z,102536.45
2019-01-02T21:41:33.043Z,102533.27
2019-01-02T21:46:38.581Z,102538.99
2019-01-02T21:51:44.041Z,102542.14
2019-01-02T21:56:49.522Z,102532.36
2019-01-02T22:01:55.003Z,102531.06
2019-01-02T22:07:00.761Z,102523.11
2019-01-02T22:12:06.461Z,102531.10
2019-01-02T22:17:11.862Z,102540.08
2019-01-02T22:22:17.421Z,102539.55
2019-01-02T22:27:22.953Z,102521.81
2019-01-02T22:32:28.620Z,102524.02
2019-01-02T22:37:34.102Z,102525.34
2019-01-02T22:42:39.760Z,102527.30
2019-01-02T22:47:45.336Z,102523.06
2019-01-02T22:52:50.962Z,102521.77
2019-01-02T22:57:56.460Z,102516.29
2019-01-02T23:03:12.342Z,102505.22
2019-01-02T23:08:26.101Z,102501.23
2019-01-02T23:13:50.560Z,102495.44
2019-01-02T23:19:09.081Z,102496.28
2019-01-02T23:24:33.401Z,102496.14
2019-01-02T23:29:57.721Z,102489.96
2019-01-02T23:35:22.042Z,102489.02
2019-01-02T23:40:36.160Z,102490.00
2019-01-02T23:45:50.097Z,102488.73
2019-01-02T23:51:04.021Z,102483.42
2019-01-02T23:56:18.143Z,102486.05
